sensor_id;sensor_type;location;lat;lon;timestamp;temperature;humidity
37410;DHT22;23275;48.914;12.566;2022-07-29T00:00:38;20.10;99.90
37410;DHT22;23275;48.914;12.566;2022-07-29T00:03:04;20.20;99.90
37410;DHT22;23275;48.914;12.566;2022-07-29T00:05:30;20.10;99.90
37410;DHT22;23275;48.914;12.566;2022-07-29T00:07:55;20.10;99.90
37410;DHT22;23275;48.914;12.566;2022-07-29T00:10:21;20.10;99.90
37410;DHT22;23275;48.914;12.566;2022-07-29T00:12:47;20.10;99.90
37410;DHT22;23275;48.914;12.566;2022-07-29T00:15:13;20.00;99.90
37410;DHT22;23275;48.914;12.566;2022-07-29T00:17:39;19.90;99.90
37410;DHT22;23275;48.914;12.566;2022-07-29T00:20:05;19.90;99.90
37410;DHT22;23275;48.914;12.566;2022-07-29T00:22:31;19.80;99.90
37410;DHT22;23275;48.914;12.566;2022-07-29T00:24:56;19.80;99.90
37410;DHT22;23275;48.914;12.566;2022-07-29T00:27:22;19.80;99.90
37410;DHT22;23275;48.914;12.566;2022-07-29T00:29:48;19.80;99.90
37410;DHT22;23275;48.914;12.566;2022-07-29T00:32:14;19.90;99.90
37410;DHT22;23275;48.914;12.566;2022-07-29T00:34:39;19.90;99.90
37410;DHT22;23275;48.914;12.566;2022-07-29T00:37:24;19.90;99.90
37410;DHT22;23275;48.914;12.566;2022-07-29T00:39:50;19.80;99.90
37410;DHT22;23275;48.914;12.566;2022-07-29T00:42:16;19.70;99.90
37410;DHT22;23275;48.914;12.566;2022-07-29T00:44:42;19.60;99.90
37410;DHT22;23275;48.914;12.566;2022-07-29T00:47:09;19.40;99.90
37410;DHT22;23275;48.914;12.566;2022-07-29T00:49:35;19.40;99.90
37410;DHT22;23275;48.914;12.566;2022-07-29T00:52:04;19.30;99.90
37410;DHT22;23275;48.914;12.566;2022-07-29T00:54:30;19.30;99.90
37410;DHT22;23275;48.914;12.566;2022-07-29T00:56:58;19.30;99.90
37410;DHT22;23275;48.914;12.566;2022-07-29T00:59:25;19.30;99.90
37410;DHT22;23275;48.914;12.566;2022-07-29T01:01:52;19.20;99.90
37410;DHT22;23275;48.914;12.566;2022-07-29T01:04:18;19.30;99.90
37410;DHT22;23275;48.914;12.566;2022-07-29T01:06:44;19.30;99.90
37410;DHT22;23275;48.914;12.566;2022-07-29T01:09:09;19.30;99.90
37410;DHT22;23275;48.914;12.566;2022-07-29T01:11:36;19.30;99.90
37410;DHT22;23275;48.914;12.566;2022-07-29T01:14:03;19.20;99.90
37410;DHT22;23275;48.914;12.566;2022-07-29T01:22:24;18.90;99.90
37410;DHT22;23275;48.914;12.566;2022-07-29T01:25:19;18.90;99.90
37410;DHT22;23275;48.914;12.566;2022-07-29T01:28:03;18.80;99.90
37410;DHT22;23275;48.914;12.566;2022-07-29T01:30:35;18.90;99.90
37410;DHT22;23275;48.914;12.566;2022-07-29T01:33:05;18.90;99.90
37410;DHT22;23275;48.914;12.566;2022-07-29T01:35:36;18.90;99.90
37410;DHT22;23275;48.914;12.566;2022-07-29T01:38:13;19.10;99.90
37410;DHT22;23275;48.914;12.566;2022-07-29T01:41:06;19.20;99.90
37410;DHT22;23275;48.914;12.566;2022-07-29T01:43:44;19.30;99.90
37410;DHT22;23275;48.914;12.566;2022-07-29T01:46:15;19.30;99.90
37410;DHT22;23275;48.914;12.566;2022-07-29T01:48:48;19.40;99.90
37410;DHT22;23275;48.914;12.566;2022-07-29T01:51:21;19.40;99.90
37410;DHT22;23275;48.914;12.566;2022-07-29T01:54:04;19.40;99.90
37410;DHT22;23275;48.914;12.566;2022-07-29T01:56:32;19.40;99.90
37410;DHT22;23275;48.914;12.566;2022-07-29T01:59:01;19.40;99.90
37410;DHT22;23275;48.914;12.566;2022-07-29T02:01:31;19.30;99.90
37410;DHT22;23275;48.914;12.566;2022-07-29T02:03:59;19.30;99.90
37410;DHT22;23275;48.914;12.566;2022-07-29T02:06:27;19.30;99.90
37410;DHT22;23275;48.914;12.566;2022-07-29T02:08:57;19.20;99.90
37410;DHT22;23275;48.914;12.566;2022-07-29T02:11:23;19.20;99.90
37410;DHT22;23275;48.914;12.566;2022-07-29T02:13:50;19.00;99.90
37410;DHT22;23275;48.914;12.566;2022-07-29T02:16:19;19.00;99.90
37410;DHT22;23275;48.914;12.566;2022-07-29T02:18:48;19.00;99.90
37410;DHT22;23275;48.914;12.566;2022-07-29T02:21:21;18.90;99.90
37410;DHT22;23275;48.914;12.566;2022-07-29T02:23:48;18.90;99.90
37410;DHT22;23275;48.914;12.566;2022-07-29T02:26:17;18.90;99.90
37410;DHT22;23275;48.914;12.566;2022-07-29T02:28:44;18.90;99.90
37410;DHT22;23275;48.914;12.566;2022-07-29T02:31:12;18.80;99.90
37410;DHT22;23275;48.914;12.566;2022-07-29T02:33:40;18.80;99.90
37410;DHT22;23275;48.914;12.566;2022-07-29T02:36:06;18.90;99.90
37410;DHT22;23275;48.914;12.566;2022-07-29T02:38:34;18.90;99.90
37410;DHT22;23275;48.914;12.566;2022-07-29T02:41:18;18.90;99.90
37410;DHT22;23275;48.914;12.566;2022-07-29T02:43:48;18.80;99.90
37410;DHT22;23275;48.914;12.566;2022-07-29T02:46:19;18.60;99.90
37410;DHT22;23275;48.914;12.566;2022-07-29T02:48:51;18.60;99.90
37410;DHT22;23275;48.914;12.566;2022-07-29T02:51:26;18.50;99.90
37410;DHT22;23275;48.914;12.566;2022-07-29T02:53:54;18.40;99.90
37410;DHT22;23275;48.914;12.566;2022-07-29T02:56:25;18.40;99.90
37410;DHT22;23275;48.914;12.566;2022-07-29T02:58:58;18.40;99.90
37410;DHT22;23275;48.914;12.566;2022-07-29T03:01:31;18.40;99.90
37410;DHT22;23275;48.914;12.566;2022-07-29T03:04:01;18.30;99.90
37410;DHT22;23275;48.914;12.566;2022-07-29T03:06:28;18.30;99.90
37410;DHT22;23275;48.914;12.566;2022-07-29T03:08:56;18.30;99.90
37410;DHT22;23275;48.914;12.566;2022-07-29T03:11:23;18.30;99.90
37410;DHT22;23275;48.914;12.566;2022-07-29T03:13:48;18.30;99.90
37410;DHT22;23275;48.914;12.566;2022-07-29T03:16:15;18.20;99.90
37410;DHT22;23275;48.914;12.566;2022-07-29T03:18:41;18.30;99.90
37410;DHT22;23275;48.914;12.566;2022-07-29T03:21:06;18.30;99.90
37410;DHT22;23275;48.914;12.566;2022-07-29T03:23:33;18.40;99.90
37410;DHT22;23275;48.914;12.566;2022-07-29T03:25:58;18.40;99.90
37410;DHT22;23275;48.914;12.566;2022-07-29T03:28:24;18.40;99.90
37410;DHT22;23275;48.914;12.566;2022-07-29T03:30:53;18.40;99.90
37410;DHT22;23275;48.914;12.566;2022-07-29T03:33:19;18.40;99.90
37410;DHT22;23275;48.914;12.566;2022-07-29T03:35:45;18.50;99.90
37410;DHT22;23275;48.914;12.566;2022-07-29T03:38:10;18.50;99.90
37410;DHT22;23275;48.914;12.566;2022-07-29T03:40:51;18.50;99.90
37410;DHT22;23275;48.914;12.566;2022-07-29T03:43:18;18.60;99.90
37410;DHT22;23275;48.914;12.566;2022-07-29T03:45:47;18.60;99.90
37410;DHT22;23275;48.914;12.566;2022-07-29T03:48:18;18.50;99.90
37410;DHT22;23275;48.914;12.566;2022-07-29T03:50:45;18.50;99.90
37410;DHT22;23275;48.914;12.566;2022-07-29T03:53:11;18.50;99.90
37410;DHT22;23275;48.914;12.566;2022-07-29T03:55:41;18.50;99.90
37410;DHT22;23275;48.914;12.566;2022-07-29T03:58:08;18.50;99.90
37410;DHT22;23275;48.914;12.566;2022-07-29T04:00:36;18.30;99.90
37410;DHT22;23275;48.914;12.566;2022-07-29T04:03:04;18.30;99.90
37410;DHT22;23275;48.914;12.566;2022-07-29T04:05:30;18.30;99.90
37410;DHT22;23275;48.914;12.566;2022-07-29T04:07:55;18.30;99.90
37410;DHT22;23275;48.914;12.566;2022-07-29T04:10:21;18.30;99.90
37410;DHT22;23275;48.914;12.566;2022-07-29T04:12:48;18.30;99.90
37410;DHT22;23275;48.914;12.566;2022-07-29T04:15:14;18.30;99.90
37410;DHT22;23275;48.914;12.566;2022-07-29T04:17:40;18.30;99.90
37410;DHT22;23275;48.914;12.566;2022-07-29T04:20:06;18.20;99.90
37410;DHT22;23275;48.914;12.566;2022-07-29T04:22:32;18.20;99.90
37410;DHT22;23275;48.914;12.566;2022-07-29T04:24:57;18.20;99.90
37410;DHT22;23275;48.914;12.566;2022-07-29T04:27:23;18.30;99.90
37410;DHT22;23275;48.914;12.566;2022-07-29T04:29:49;18.40;99.90
37410;DHT22;23275;48.914;12.566;2022-07-29T04:32:14;18.40;99.90
37410;DHT22;23275;48.914;12.566;2022-07-29T04:34:40;18.50;99.90
37410;DHT22;23275;48.914;12.566;2022-07-29T04:37:06;18.60;99.90
37410;DHT22;23275;48.914;12.566;2022-07-29T04:39:31;18.70;99.90
37410;DHT22;23275;48.914;12.566;2022-07-29T04:41:57;18.70;99.90
37410;DHT22;23275;48.914;12.566;2022-07-29T04:44:22;18.80;99.90
37410;DHT22;23275;48.914;12.566;2022-07-29T04:46:48;18.80;99.90
37410;DHT22;23275;48.914;12.566;2022-07-29T04:49:14;18.80;99.90
37410;DHT22;23275;48.914;12.566;2022-07-29T04:51:39;18.80;99.90
37410;DHT22;23275;48.914;12.566;2022-07-29T04:54:05;18.90;99.90
37410;DHT22;23275;48.914;12.566;2022-07-29T04:56:31;18.80;99.90
37410;DHT22;23275;48.914;12.566;2022-07-29T04:58:57;18.80;99.90
37410;DHT22;23275;48.914;12.566;2022-07-29T05:01:23;18.70;99.90
37410;DHT22;23275;48.914;12.566;2022-07-29T05:03:48;18.80;99.90
37410;DHT22;23275;48.914;12.566;2022-07-29T05:06:14;18.70;99.90
37410;DHT22;23275;48.914;12.566;2022-07-29T05:08:39;18.70;99.90
37410;DHT22;23275;48.914;12.566;2022-07-29T05:11:05;18.70;99.90
37410;DHT22;23275;48.914;12.566;2022-07-29T05:13:31;18.70;99.90
37410;DHT22;23275;48.914;12.566;2022-07-29T05:15:57;18.80;99.90
37410;DHT22;23275;48.914;12.566;2022-07-29T05:18:25;18.80;99.90
37410;DHT22;23275;48.914;12.566;2022-07-29T05:20:51;18.90;99.90
37410;DHT22;23275;48.914;12.566;2022-07-29T05:23:17;19.00;99.90
37410;DHT22;23275;48.914;12.566;2022-07-29T05:25:42;19.10;99.90
37410;DHT22;23275;48.914;12.566;2022-07-29T05:28:08;19.20;99.90
37410;DHT22;23275;48.914;12.566;2022-07-29T05:30:34;19.40;99.90
37410;DHT22;23275;48.914;12.566;2022-07-29T05:32:59;19.50;99.90
37410;DHT22;23275;48.914;12.566;2022-07-29T05:35:25;19.60;99.90
37410;DHT22;23275;48.914;12.566;2022-07-29T05:37:50;19.80;99.90
37410;DHT22;23275;48.914;12.566;2022-07-29T05:40:16;19.90;99.90
37410;DHT22;23275;48.914;12.566;2022-07-29T05:42:42;20.00;99.90
37410;DHT22;23275;48.914;12.566;2022-07-29T05:45:08;20.00;99.90
37410;DHT22;23275;48.914;12.566;2022-07-29T05:47:34;20.10;99.90
37410;DHT22;23275;48.914;12.566;2022-07-29T05:49:59;20.10;99.90
37410;DHT22;23275;48.914;12.566;2022-07-29T05:52:25;20.10;99.90
37410;DHT22;23275;48.914;12.566;2022-07-29T05:54:51;20.10;99.90
37410;DHT22;23275;48.914;12.566;2022-07-29T05:57:21;20.20;99.90
37410;DHT22;23275;48.914;12.566;2022-07-29T05:59:48;20.30;99.90
37410;DHT22;23275;48.914;12.566;2022-07-29T06:02:14;20.40;99.90
37410;DHT22;23275;48.914;12.566;2022-07-29T06:04:39;20.40;99.90
37410;DHT22;23275;48.914;12.566;2022-07-29T06:07:05;20.50;99.90
37410;DHT22;23275;48.914;12.566;2022-07-29T06:09:31;20.70;99.90
37410;DHT22;23275;48.914;12.566;2022-07-29T06:11:57;20.80;99.90
37410;DHT22;23275;48.914;12.566;2022-07-29T06:14:23;21.00;99.90
37410;DHT22;23275;48.914;12.566;2022-07-29T06:16:49;21.00;99.90
37410;DHT22;23275;48.914;12.566;2022-07-29T06:19:14;21.00;99.90
37410;DHT22;23275;48.914;12.566;2022-07-29T06:21:45;20.90;99.90
37410;DHT22;23275;48.914;12.566;2022-07-29T06:24:12;20.70;99.90
37410;DHT22;23275;48.914;12.566;2022-07-29T06:26:38;20.70;99.90
37410;DHT22;23275;48.914;12.566;2022-07-29T06:29:05;20.60;99.90
37410;DHT22;23275;48.914;12.566;2022-07-29T06:31:30;20.60;99.90
37410;DHT22;23275;48.914;12.566;2022-07-29T06:33:56;20.60;99.90
37410;DHT22;23275;48.914;12.566;2022-07-29T06:36:22;20.80;99.90
37410;DHT22;23275;48.914;12.566;2022-07-29T06:38:47;20.80;99.90
37410;DHT22;23275;48.914;12.566;2022-07-29T06:41:13;20.90;99.90
37410;DHT22;23275;48.914;12.566;2022-07-29T06:43:43;21.00;99.90
37410;DHT22;23275;48.914;12.566;2022-07-29T06:46:16;21.20;99.90
37410;DHT22;23275;48.914;12.566;2022-07-29T06:48:46;21.40;99.90
37410;DHT22;23275;48.914;12.566;2022-07-29T06:51:13;21.50;99.90
37410;DHT22;23275;48.914;12.566;2022-07-29T06:53:39;21.50;99.90
37410;DHT22;23275;48.914;12.566;2022-07-29T06:56:06;21.60;99.90
37410;DHT22;23275;48.914;12.566;2022-07-29T06:58:34;21.90;99.90
37410;DHT22;23275;48.914;12.566;2022-07-29T07:01:02;22.10;99.90
37410;DHT22;23275;48.914;12.566;2022-07-29T07:03:28;22.20;99.90
37410;DHT22;23275;48.914;12.566;2022-07-29T07:05:54;22.30;99.90
37410;DHT22;23275;48.914;12.566;2022-07-29T07:08:20;22.40;99.90
37410;DHT22;23275;48.914;12.566;2022-07-29T07:10:47;22.40;99.90
37410;DHT22;23275;48.914;12.566;2022-07-29T07:13:13;22.50;99.90
37410;DHT22;23275;48.914;12.566;2022-07-29T07:15:39;22.60;99.90
37410;DHT22;23275;48.914;12.566;2022-07-29T07:18:05;22.60;99.90
37410;DHT22;23275;48.914;12.566;2022-07-29T07:20:32;22.70;99.90
37410;DHT22;23275;48.914;12.566;2022-07-29T07:22:58;22.70;99.90
37410;DHT22;23275;48.914;12.566;2022-07-29T07:25:23;22.80;99.90
37410;DHT22;23275;48.914;12.566;2022-07-29T07:27:49;23.00;99.90
37410;DHT22;23275;48.914;12.566;2022-07-29T07:30:15;23.00;99.90
37410;DHT22;23275;48.914;12.566;2022-07-29T07:32:41;23.20;99.90
37410;DHT22;23275;48.914;12.566;2022-07-29T07:35:07;23.30;99.90
37410;DHT22;23275;48.914;12.566;2022-07-29T07:37:33;23.40;99.90
37410;DHT22;23275;48.914;12.566;2022-07-29T07:39:59;23.40;99.90
37410;DHT22;23275;48.914;12.566;2022-07-29T07:42:26;23.40;99.90
37410;DHT22;23275;48.914;12.566;2022-07-29T07:44:51;23.60;99.90
37410;DHT22;23275;48.914;12.566;2022-07-29T07:47:17;24.00;99.90
37410;DHT22;23275;48.914;12.566;2022-07-29T07:49:49;24.50;99.90
37410;DHT22;23275;48.914;12.566;2022-07-29T07:52:17;24.80;99.90
37410;DHT22;23275;48.914;12.566;2022-07-29T07:54:43;24.80;99.90
37410;DHT22;23275;48.914;12.566;2022-07-29T07:57:10;24.90;99.90
37410;DHT22;23275;48.914;12.566;2022-07-29T07:59:36;24.80;99.90
37410;DHT22;23275;48.914;12.566;2022-07-29T08:02:02;25.10;99.90
37410;DHT22;23275;48.914;12.566;2022-07-29T08:04:27;25.40;99.90
37410;DHT22;23275;48.914;12.566;2022-07-29T08:06:54;25.90;99.90
37410;DHT22;23275;48.914;12.566;2022-07-29T08:09:21;26.30;99.90
37410;DHT22;23275;48.914;12.566;2022-07-29T08:11:46;26.60;99.90
37410;DHT22;23275;48.914;12.566;2022-07-29T08:14:12;26.80;99.90
37410;DHT22;23275;48.914;12.566;2022-07-29T08:16:39;26.80;99.90
37410;DHT22;23275;48.914;12.566;2022-07-29T08:19:05;26.90;99.90
37410;DHT22;23275;48.914;12.566;2022-07-29T08:21:31;27.00;99.90
37410;DHT22;23275;48.914;12.566;2022-07-29T08:23:56;26.90;99.90
37410;DHT22;23275;48.914;12.566;2022-07-29T08:26:42;27.00;99.90
37410;DHT22;23275;48.914;12.566;2022-07-29T08:29:09;27.20;99.90
37410;DHT22;23275;48.914;12.566;2022-07-29T08:31:35;27.40;99.90
37410;DHT22;23275;48.914;12.566;2022-07-29T08:34:01;27.60;99.90
37410;DHT22;23275;48.914;12.566;2022-07-29T08:36:28;28.00;99.90
37410;DHT22;23275;48.914;12.566;2022-07-29T08:38:53;28.20;99.90
37410;DHT22;23275;48.914;12.566;2022-07-29T08:41:20;28.40;99.90
37410;DHT22;23275;48.914;12.566;2022-07-29T08:43:47;28.60;99.90
37410;DHT22;23275;48.914;12.566;2022-07-29T08:46:13;28.60;99.90
37410;DHT22;23275;48.914;12.566;2022-07-29T08:48:41;28.80;99.90
37410;DHT22;23275;48.914;12.566;2022-07-29T08:51:07;28.90;99.90
37410;DHT22;23275;48.914;12.566;2022-07-29T08:53:33;29.20;99.90
37410;DHT22;23275;48.914;12.566;2022-07-29T08:55:59;29.30;99.90
37410;DHT22;23275;48.914;12.566;2022-07-29T08:58:26;29.80;99.10
37410;DHT22;23275;48.914;12.566;2022-07-29T09:00:53;30.20;98.00
37410;DHT22;23275;48.914;12.566;2022-07-29T09:03:23;30.80;97.60
37410;DHT22;23275;48.914;12.566;2022-07-29T09:05:49;31.30;96.50
37410;DHT22;23275;48.914;12.566;2022-07-29T09:08:16;31.90;92.70
37410;DHT22;23275;48.914;12.566;2022-07-29T09:10:42;32.00;92.00
37410;DHT22;23275;48.914;12.566;2022-07-29T09:13:07;32.30;91.10
37410;DHT22;23275;48.914;12.566;2022-07-29T09:15:33;32.80;87.60
37410;DHT22;23275;48.914;12.566;2022-07-29T09:17:59;33.30;88.10
37410;DHT22;23275;48.914;12.566;2022-07-29T09:20:26;33.90;80.60
37410;DHT22;23275;48.914;12.566;2022-07-29T09:23:11;34.20;79.40
37410;DHT22;23275;48.914;12.566;2022-07-29T09:25:39;34.10;75.70
37410;DHT22;23275;48.914;12.566;2022-07-29T09:28:10;34.30;78.10
37410;DHT22;23275;48.914;12.566;2022-07-29T09:30:53;34.80;74.10
37410;DHT22;23275;48.914;12.566;2022-07-29T09:33:20;35.30;70.60
37410;DHT22;23275;48.914;12.566;2022-07-29T09:36:05;35.50;69.40
37410;DHT22;23275;48.914;12.566;2022-07-29T09:38:31;35.90;64.40
37410;DHT22;23275;48.914;12.566;2022-07-29T09:40:59;35.60;65.50
37410;DHT22;23275;48.914;12.566;2022-07-29T09:43:25;36.00;64.00
37410;DHT22;23275;48.914;12.566;2022-07-29T09:45:50;36.40;59.10
37410;DHT22;23275;48.914;12.566;2022-07-29T09:48:20;36.80;60.70
37410;DHT22;23275;48.914;12.566;2022-07-29T09:50:47;36.80;57.50
37410;DHT22;23275;48.914;12.566;2022-07-29T09:55:57;37.10;58.00
37410;DHT22;23275;48.914;12.566;2022-07-29T09:58:23;37.40;59.00
37410;DHT22;23275;48.914;12.566;2022-07-29T10:00:50;37.50;54.90
37410;DHT22;23275;48.914;12.566;2022-07-29T10:03:17;37.50;55.70
37410;DHT22;23275;48.914;12.566;2022-07-29T10:05:44;37.40;57.60
37410;DHT22;23275;48.914;12.566;2022-07-29T10:08:10;37.40;57.10
37410;DHT22;23275;48.914;12.566;2022-07-29T10:10:39;37.80;55.90
37410;DHT22;23275;48.914;12.566;2022-07-29T10:13:08;38.00;57.50
37410;DHT22;23275;48.914;12.566;2022-07-29T10:15:35;38.70;54.00
37410;DHT22;23275;48.914;12.566;2022-07-29T10:18:10;38.20;54.30
37410;DHT22;23275;48.914;12.566;2022-07-29T10:20:37;37.60;55.60
37410;DHT22;23275;48.914;12.566;2022-07-29T10:23:03;37.40;54.10
37410;DHT22;23275;48.914;12.566;2022-07-29T10:25:29;37.30;56.00
37410;DHT22;23275;48.914;12.566;2022-07-29T10:27:54;36.60;55.80
37410;DHT22;23275;48.914;12.566;2022-07-29T10:30:22;36.50;57.90
37410;DHT22;23275;48.914;12.566;2022-07-29T10:38:44;37.00;57.60
37410;DHT22;23275;48.914;12.566;2022-07-29T10:44:24;38.00;54.60
37410;DHT22;23275;48.914;12.566;2022-07-29T10:46:51;37.60;54.50
37410;DHT22;23275;48.914;12.566;2022-07-29T10:49:20;37.80;54.70
37410;DHT22;23275;48.914;12.566;2022-07-29T10:52:08;37.60;54.40
37410;DHT22;23275;48.914;12.566;2022-07-29T10:54:48;37.80;54.00
37410;DHT22;23275;48.914;12.566;2022-07-29T10:57:17;37.20;55.00
37410;DHT22;23275;48.914;12.566;2022-07-29T10:59:45;36.40;55.30
37410;DHT22;23275;48.914;12.566;2022-07-29T11:05:17;35.00;57.10
37410;DHT22;23275;48.914;12.566;2022-07-29T11:08:17;35.80;57.80
37410;DHT22;23275;48.914;12.566;2022-07-29T11:10:45;36.80;57.70
37410;DHT22;23275;48.914;12.566;2022-07-29T11:13:11;37.50;54.10
37410;DHT22;23275;48.914;12.566;2022-07-29T11:15:53;37.40;52.00
37410;DHT22;23275;48.914;12.566;2022-07-29T11:18:19;37.70;53.30
37410;DHT22;23275;48.914;12.566;2022-07-29T11:20:46;38.10;52.60
37410;DHT22;23275;48.914;12.566;2022-07-29T11:26:19;38.70;51.30
37410;DHT22;23275;48.914;12.566;2022-07-29T11:28:49;38.00;50.70
37410;DHT22;23275;48.914;12.566;2022-07-29T11:31:19;37.00;54.10
37410;DHT22;23275;48.914;12.566;2022-07-29T11:33:45;35.50;55.10
37410;DHT22;23275;48.914;12.566;2022-07-29T11:36:12;34.70;58.90
37410;DHT22;23275;48.914;12.566;2022-07-29T11:38:38;33.60;58.40
37410;DHT22;23275;48.914;12.566;2022-07-29T11:43:55;32.20;62.40
37410;DHT22;23275;48.914;12.566;2022-07-29T11:46:46;31.80;64.80
37410;DHT22;23275;48.914;12.566;2022-07-29T11:49:21;31.90;63.20
37410;DHT22;23275;48.914;12.566;2022-07-29T11:51:56;31.50;65.30
37410;DHT22;23275;48.914;12.566;2022-07-29T11:54:26;31.90;66.60
37410;DHT22;23275;48.914;12.566;2022-07-29T11:56:52;32.20;64.50
37410;DHT22;23275;48.914;12.566;2022-07-29T11:59:19;31.70;63.30
37410;DHT22;23275;48.914;12.566;2022-07-29T12:01:56;31.10;66.30
37410;DHT22;23275;48.914;12.566;2022-07-29T12:04:21;30.90;65.50
37410;DHT22;23275;48.914;12.566;2022-07-29T12:06:52;30.50;65.10
37410;DHT22;23275;48.914;12.566;2022-07-29T12:09:18;30.20;66.80
37410;DHT22;23275;48.914;12.566;2022-07-29T12:11:46;30.00;67.20
37410;DHT22;23275;48.914;12.566;2022-07-29T12:14:28;30.10;66.00
37410;DHT22;23275;48.914;12.566;2022-07-29T12:16:54;30.30;67.00
37410;DHT22;23275;48.914;12.566;2022-07-29T12:19:19;30.00;66.70
37410;DHT22;23275;48.914;12.566;2022-07-29T12:21:50;29.90;70.30
37410;DHT22;23275;48.914;12.566;2022-07-29T12:24:17;30.00;69.20
37410;DHT22;23275;48.914;12.566;2022-07-29T12:27:03;30.20;70.90
37410;DHT22;23275;48.914;12.566;2022-07-29T12:29:29;30.20;66.90
37410;DHT22;23275;48.914;12.566;2022-07-29T12:31:55;30.20;69.20
37410;DHT22;23275;48.914;12.566;2022-07-29T12:34:23;30.20;67.70
37410;DHT22;23275;48.914;12.566;2022-07-29T12:36:49;30.10;67.00
37410;DHT22;23275;48.914;12.566;2022-07-29T12:39:18;30.00;69.20
37410;DHT22;23275;48.914;12.566;2022-07-29T12:41:44;29.80;70.50
37410;DHT22;23275;48.914;12.566;2022-07-29T12:44:11;29.50;71.80
37410;DHT22;23275;48.914;12.566;2022-07-29T12:46:37;28.90;70.00
37410;DHT22;23275;48.914;12.566;2022-07-29T12:49:03;28.60;71.20
37410;DHT22;23275;48.914;12.566;2022-07-29T12:51:39;28.40;72.00
37410;DHT22;23275;48.914;12.566;2022-07-29T12:56:33;28.20;72.20
37410;DHT22;23275;48.914;12.566;2022-07-29T12:58:59;28.20;74.30
37410;DHT22;23275;48.914;12.566;2022-07-29T13:01:25;28.20;72.30
37410;DHT22;23275;48.914;12.566;2022-07-29T13:03:56;28.30;72.10
37410;DHT22;23275;48.914;12.566;2022-07-29T13:09:16;28.60;74.10
37410;DHT22;23275;48.914;12.566;2022-07-29T13:11:48;28.60;75.10
37410;DHT22;23275;48.914;12.566;2022-07-29T13:19:40;29.60;72.00
37410;DHT22;23275;48.914;12.566;2022-07-29T13:22:11;29.70;72.50
37410;DHT22;23275;48.914;12.566;2022-07-29T13:24:53;29.60;70.40
37410;DHT22;23275;48.914;12.566;2022-07-29T13:27:22;29.30;71.60
37410;DHT22;23275;48.914;12.566;2022-07-29T13:29:48;29.40;73.40
37410;DHT22;23275;48.914;12.566;2022-07-29T13:32:16;29.40;72.20
37410;DHT22;23275;48.914;12.566;2022-07-29T13:34:42;29.20;73.80
37410;DHT22;23275;48.914;12.566;2022-07-29T13:37:08;29.30;73.70
37410;DHT22;23275;48.914;12.566;2022-07-29T13:39:33;29.30;71.50
37410;DHT22;23275;48.914;12.566;2022-07-29T13:41:59;29.20;70.90
37410;DHT22;23275;48.914;12.566;2022-07-29T13:44:25;29.30;73.30
37410;DHT22;23275;48.914;12.566;2022-07-29T13:46:50;29.40;71.40
37410;DHT22;23275;48.914;12.566;2022-07-29T13:49:16;29.40;72.00
37410;DHT22;23275;48.914;12.566;2022-07-29T13:51:42;29.10;71.10
37410;DHT22;23275;48.914;12.566;2022-07-29T13:54:08;29.00;74.30
37410;DHT22;23275;48.914;12.566;2022-07-29T13:56:34;28.90;75.50
37410;DHT22;23275;48.914;12.566;2022-07-29T13:58:59;29.00;73.60
37410;DHT22;23275;48.914;12.566;2022-07-29T14:01:25;28.90;77.50
37410;DHT22;23275;48.914;12.566;2022-07-29T14:03:52;28.80;77.70
37410;DHT22;23275;48.914;12.566;2022-07-29T14:06:18;28.70;75.10
37410;DHT22;23275;48.914;12.566;2022-07-29T14:08:43;28.60;77.20
37410;DHT22;23275;48.914;12.566;2022-07-29T14:11:09;28.50;80.90
37410;DHT22;23275;48.914;12.566;2022-07-29T14:13:34;28.70;76.30
37410;DHT22;23275;48.914;12.566;2022-07-29T14:16:00;29.00;75.80
37410;DHT22;23275;48.914;12.566;2022-07-29T14:18:26;29.10;74.60
37410;DHT22;23275;48.914;12.566;2022-07-29T14:20:51;29.00;71.70
37410;DHT22;23275;48.914;12.566;2022-07-29T14:23:17;29.00;72.20
37410;DHT22;23275;48.914;12.566;2022-07-29T14:25:43;28.80;74.70
37410;DHT22;23275;48.914;12.566;2022-07-29T14:28:09;28.80;74.60
37410;DHT22;23275;48.914;12.566;2022-07-29T14:30:35;28.80;74.50
37410;DHT22;23275;48.914;12.566;2022-07-29T14:33:00;28.80;74.50
37410;DHT22;23275;48.914;12.566;2022-07-29T14:35:26;28.70;76.20
37410;DHT22;23275;48.914;12.566;2022-07-29T14:37:51;28.70;74.20
37410;DHT22;23275;48.914;12.566;2022-07-29T14:40:17;28.50;78.30
37410;DHT22;23275;48.914;12.566;2022-07-29T14:42:43;28.50;74.70
37410;DHT22;23275;48.914;12.566;2022-07-29T14:45:09;28.50;75.20
37410;DHT22;23275;48.914;12.566;2022-07-29T14:47:36;28.50;73.30
37410;DHT22;23275;48.914;12.566;2022-07-29T14:50:02;28.50;77.50
37410;DHT22;23275;48.914;12.566;2022-07-29T14:52:29;28.50;77.70
37410;DHT22;23275;48.914;12.566;2022-07-29T14:54:54;28.50;73.10
37410;DHT22;23275;48.914;12.566;2022-07-29T14:57:20;28.60;72.10
37410;DHT22;23275;48.914;12.566;2022-07-29T14:59:45;28.70;77.70
37410;DHT22;23275;48.914;12.566;2022-07-29T15:02:11;28.70;82.90
37410;DHT22;23275;48.914;12.566;2022-07-29T15:04:36;28.60;71.80
37410;DHT22;23275;48.914;12.566;2022-07-29T15:07:03;28.50;77.90
37410;DHT22;23275;48.914;12.566;2022-07-29T15:09:28;28.50;81.60
37410;DHT22;23275;48.914;12.566;2022-07-29T15:11:54;28.50;81.60
37410;DHT22;23275;48.914;12.566;2022-07-29T15:14:19;28.30;76.60
37410;DHT22;23275;48.914;12.566;2022-07-29T15:16:45;28.20;73.50
37410;DHT22;23275;48.914;12.566;2022-07-29T15:19:11;28.10;73.50
37410;DHT22;23275;48.914;12.566;2022-07-29T15:21:37;28.10;80.10
37410;DHT22;23275;48.914;12.566;2022-07-29T15:24:03;28.10;84.00
37410;DHT22;23275;48.914;12.566;2022-07-29T15:26:28;28.00;78.50
37410;DHT22;23275;48.914;12.566;2022-07-29T15:28:54;28.00;81.10
37410;DHT22;23275;48.914;12.566;2022-07-29T15:31:22;28.00;80.50
37410;DHT22;23275;48.914;12.566;2022-07-29T15:33:48;28.10;79.60
37410;DHT22;23275;48.914;12.566;2022-07-29T15:36:13;28.10;80.00
37410;DHT22;23275;48.914;12.566;2022-07-29T15:38:39;28.30;80.40
37410;DHT22;23275;48.914;12.566;2022-07-29T15:41:06;28.40;79.60
37410;DHT22;23275;48.914;12.566;2022-07-29T15:43:32;28.50;76.60
37410;DHT22;23275;48.914;12.566;2022-07-29T15:45:58;28.50;77.10
37410;DHT22;23275;48.914;12.566;2022-07-29T15:48:42;28.50;78.50
37410;DHT22;23275;48.914;12.566;2022-07-29T15:51:07;28.40;78.80
37410;DHT22;23275;48.914;12.566;2022-07-29T15:53:33;28.30;78.10
37410;DHT22;23275;48.914;12.566;2022-07-29T15:55:59;28.20;78.10